| time (UTC) | temp C | wind direction | speed KPH | gust KPH | rain 1hr cm | rain 24hr cm | rain mn cm | humidity % | barometer mb |
| 20260507060047 | 11 | 264 | 3.2 | 8.0 | 0.00 | 0.00 | 0.00 | 88 | 1021.5 |
| 20260507054633 | 11 | 202 | 3.2 | 11.3 | 0.00 | 0.00 | 0.00 | 88 | 1021.5 |
| 20260507053053 | 11 | 247 | 3.2 | 6.4 | 0.00 | 0.00 | 0.00 | 88 | 1021.3 |
| 20260507051549 | 11 | 243 | 3.2 | 9.7 | 0.00 | 0.00 | 0.00 | 86 | 1021.5 |
| 20260507050059 | 11 | 269 | 3.2 | 9.7 | 0.00 | 0.00 | 0.00 | 84 | 1021.5 |
| 20260507044553 | 12 | 210 | 3.2 | 9.7 | 0.00 | 0.00 | 0.00 | 84 | 1021.5 |
| 20260507043054 | 12 | 253 | 1.6 | 4.8 | 0.00 | 0.00 | 0.00 | 83 | 1021.5 |
| 20260507041556 | 12 | 228 | 3.2 | 9.7 | 0.00 | 0.00 | 0.00 | 83 | 1021.4 |
| 20260507040050 | 12 | 293 | 1.6 | 8.0 | 0.00 | 0.00 | 0.00 | 82 | 1021.2 |
| 20260507034555 | 12 | 203 | 4.8 | 11.3 | 0.00 | 0.00 | 0.00 | 82 | 1021.1 |
| 20260507033056 | 12 | 223 | 6.4 | 11.3 | 0.00 | 0.00 | 0.00 | 81 | 1021.0 |
| 20260507031603 | 12 | 236 | 4.8 | 8.0 | 0.00 | 0.00 | 0.00 | 81 | 1020.8 |
| 20260507030054 | 12 | 211 | 3.2 | 11.3 | 0.00 | 0.00 | 0.00 | 81 | 1020.7 |
| 20260507024552 | 12 | 240 | 4.8 | 14.5 | 0.00 | 0.00 | 0.00 | 80 | 1020.7 |
| 20260507023103 | 12 | 235 | 8.0 | 16.1 | 0.00 | 0.00 | 0.00 | 80 | 1020.5 |
| 20260507021554 | 13 | 224 | 3.2 | 9.7 | 0.00 | 0.00 | 0.00 | 80 | 1020.5 |
| 20260507020056 | 13 | 231 | 4.8 | 14.5 | 0.00 | 0.00 | 0.00 | 80 | 1020.6 |
| 20260507014551 | 13 | 234 | 6.4 | 12.9 | 0.00 | 0.00 | 0.00 | 80 | 1020.4 |
| 20260507013047 | 13 | 279 | 3.2 | 9.7 | 0.00 | 0.00 | 0.00 | 81 | 1020.5 |
| 20260507011552 | 12 | 225 | 4.8 | 12.9 | 0.00 | 0.00 | 0.00 | 81 | 1020.6 |
| 20260507010057 | 13 | 262 | 3.2 | 12.9 | 0.00 | 0.00 | 0.00 | 80 | 1020.7 |
| 20260507004551 | 13 | 234 | 8.0 | 16.1 | 0.00 | 0.00 | 0.00 | 80 | 1020.6 |
| 20260507003057 | 13 | 238 | 4.8 | 12.9 | 0.00 | 0.00 | 0.00 | 80 | 1020.7 |
| 20260507001555 | 13 | 282 | 6.4 | 14.5 | 0.00 | 0.00 | 0.00 | 80 | 1020.8 |
| 20260507000052 | 13 | 275 | 9.7 | 19.3 | 0.00 | 0.00 | 0.00 | 78 | 1020.8 |
| 20260506234552 | 13 | 258 | 6.4 | 11.3 | 0.00 | 0.00 | 0.00 | 78 | 1020.7 |
| 20260506233108 | 13 | 241 | 6.4 | 11.3 | 0.00 | 0.00 | 0.00 | 79 | 1020.9 |
| 20260506231550 | 12 | 227 | 6.4 | 11.3 | 0.00 | 0.00 | 0.00 | 80 | 1020.8 |
| 20260506230051 | 12 | 248 | 6.4 | 11.3 | 0.00 | 0.00 | 0.00 | 80 | 1020.7 |
| 20260506224548 | 12 | 304 | 4.8 | 11.3 | 0.00 | 0.00 | 0.00 | 80 | 1020.8 |
| 20260506223053 | 12 | 283 | 1.6 | 8.0 | 0.00 | 0.00 | 0.00 | 81 | 1020.9 |
| 20260506221552 | 12 | 278 | 6.4 | 14.5 | 0.00 | 0.00 | 0.00 | 81 | 1021.1 |
| 20260506220051 | 12 | 256 | 8.0 | 17.7 | 0.00 | 0.00 | 0.00 | 81 | 1021.1 |
| 20260506214552 | 12 | 232 | 6.4 | 14.5 | 0.00 | 0.00 | 0.00 | 81 | 1021.1 |
| 20260506213113 | 12 | 285 | 6.4 | 14.5 | 0.00 | 0.00 | 0.00 | 81 | 1021.1 |
| 20260506211552 | 12 | 286 | 8.0 | 12.9 | 0.00 | 0.00 | 0.00 | 81 | 1021.1 |
| 20260506210055 | 12 | 321 | 3.2 | 9.7 | 0.00 | 0.00 | 0.00 | 82 | 1021.1 |
| 20260506204551 | 12 | 267 | 4.8 | 11.3 | 0.00 | 0.00 | 0.00 | 82 | 1021.0 |
| 20260506203047 | 12 | 236 | 6.4 | 11.3 | 0.00 | 0.00 | 0.00 | 83 | 1020.9 |
| 20260506201553 | 12 | 0 | 0.0 | 1.6 | 0.00 | 0.00 | 0.00 | 85 | 1020.8 |
| 20260506200056 | 11 | 286 | 3.2 | 6.4 | 0.00 | 0.00 | 0.00 | 85 | 1020.8 |
| 20260506194628 | 11 | 245 | 1.6 | 4.8 | 0.00 | 0.00 | 0.00 | 86 | 1020.7 |
| 20260506193100 | 11 | 236 | 3.2 | 6.4 | 0.00 | 0.00 | 0.00 | 87 | 1020.6 |
| 20260506191551 | 11 | 309 | 4.8 | 8.0 | 0.00 | 0.00 | 0.00 | 87 | 1020.6 |
| 20260506190057 | 11 | 291 | 3.2 | 9.7 | 0.00 | 0.00 | 0.00 | 87 | 1020.6 |
| 20260506184557 | 12 | 290 | 4.8 | 12.9 | 0.00 | 0.00 | 0.00 | 87 | 1020.7 |
| 20260506183053 | 12 | 288 | 3.2 | 6.4 | 0.00 | 0.00 | 0.00 | 85 | 1020.5 |
| 20260506181552 | 12 | 198 | 3.2 | 11.3 | 0.00 | 0.00 | 0.00 | 84 | 1020.2 |
| 20260506174554 | 12 | 239 | 1.6 | 6.4 | 0.00 | 0.00 | 0.00 | 86 | 1020.4 |
| 20260506173056 | 12 | 206 | 1.6 | 8.0 | 0.00 | 0.00 | 0.00 | 87 | 1020.4 |
| 20260506171556 | 11 | 168 | 1.6 | 8.0 | 0.00 | 0.00 | 0.00 | 88 | 1020.4 |
| 20260506170103 | 11 | 245 | 1.6 | 9.7 | 0.00 | 0.00 | 0.00 | 88 | 1020.4 |
| 20260506164548 | 11 | 103 | 1.6 | 8.0 | 0.00 | 0.00 | 0.00 | 89 | 1020.3 |
| 20260506163110 | 11 | 105 | 3.2 | 11.3 | 0.00 | 0.00 | 0.00 | 90 | 1019.9 |
| 20260506161601 | 11 | 139 | 3.2 | 9.7 | 0.00 | 0.00 | 0.00 | 92 | 1019.7 |
| 20260506160051 | 11 | 131 | 1.6 | 9.7 | 0.00 | 0.00 | 0.00 | 92 | 1020.1 |
| 20260506154608 | 11 | 0 | 0.0 | 6.4 | 0.00 | 0.00 | 0.00 | 92 | 1020.3 |
| 20260506153110 | 11 | 180 | 0.0 | 8.0 | 0.00 | 0.00 | 0.00 | 92 | 1020.0 |
| 20260506151558 | 11 | 147 | 1.6 | 6.4 | 0.00 | 0.00 | 0.00 | 92 | 1019.9 |
| 20260506150047 | 11 | 118 | 0.0 | 8.0 | 0.00 | 0.00 | 0.00 | 91 | 1020.0 |
| 20260506144552 | 11 | 262 | 0.0 | 6.4 | 0.00 | 0.00 | 0.00 | 91 | 1020.0 |
| 20260506143103 | 11 | 115 | 3.2 | 12.9 | 0.00 | 0.00 | 0.00 | 91 | 1019.5 |
| 20260506141553 | 11 | 0 | 0.0 | 6.4 | 0.00 | 0.00 | 0.00 | 92 | 1019.7 |
| 20260506140054 | 11 | 136 | 1.6 | 8.0 | 0.00 | 0.00 | 0.00 | 93 | 1019.8 |
| 20260506134553 | 11 | 92 | 0.0 | 4.8 | 0.00 | 0.00 | 0.00 | 93 | 1019.8 |
| 20260506133055 | 11 | 155 | 0.0 | 8.0 | 0.00 | 0.00 | 0.00 | 93 | 1019.6 |
| 20260506131554 | 11 | 143 | 1.6 | 9.7 | 0.00 | 0.00 | 0.00 | 93 | 1019.3 |
| 20260506130054 | 11 | 135 | 0.0 | 4.8 | 0.00 | 0.00 | 0.00 | 93 | 1019.2 |
| 20260506124552 | 11 | 191 | 0.0 | 4.8 | 0.00 | 0.00 | 0.00 | 93 | 1019.1 |
| 20260506123049 | 11 | 111 | 1.6 | 4.8 | 0.00 | 0.00 | 0.00 | 93 | 1018.9 |
| 20260506121551 | 11 | 0 | 0.0 | 1.6 | 0.00 | 0.00 | 0.00 | 92 | 1019.0 |
| 20260506120057 | 11 | 191 | 0.0 | 4.8 | 0.00 | 0.00 | 0.00 | 92 | 1018.8 |
| 20260506114558 | 11 | 139 | 0.0 | 1.6 | 0.00 | 0.00 | 0.00 | 91 | 1018.6 |
| 20260506113055 | 11 | 0 | 0.0 | 3.2 | 0.00 | 0.00 | 0.00 | 90 | 1018.8 |
| 20260506111550 | 11 | 227 | 0.0 | 4.8 | 0.00 | 0.00 | 0.00 | 89 | 1018.8 |
| 20260506104550 | 11 | 0 | 0.0 | 4.8 | 0.00 | 0.00 | 0.00 | 88 | 1018.5 |
| 20260506103053 | 11 | 245 | 1.6 | 3.2 | 0.00 | 0.00 | 0.00 | 88 | 1018.3 |
| 20260506101551 | 11 | 207 | 1.6 | 3.2 | 0.00 | 0.00 | 0.00 | 88 | 1018.4 |
| 20260506100051 | 11 | 245 | 0.0 | 3.2 | 0.00 | 0.00 | 0.00 | 88 | 1018.2 |
| 20260506094606 | 11 | 266 | 4.8 | 8.0 | 0.00 | 0.00 | 0.00 | 87 | 1018.0 |
| 20260506093056 | 12 | 219 | 3.2 | 6.4 | 0.00 | 0.00 | 0.00 | 87 | 1017.9 |
| 20260506091552 | 12 | 161 | 1.6 | 6.4 | 0.00 | 0.00 | 0.00 | 87 | 1017.9 |
| 20260506090054 | 12 | 236 | 1.6 | 4.8 | 0.00 | 0.00 | 0.00 | 87 | 1017.8 |
| 20260506084554 | 12 | 222 | 0.0 | 4.8 | 0.00 | 0.00 | 0.00 | 87 | 1017.8 |
| 20260506083102 | 12 | 0 | 0.0 | 4.8 | 0.00 | 0.00 | 0.00 | 86 | 1017.6 |
| 20260506081555 | 12 | 0 | 0.0 | 8.0 | 0.00 | 0.00 | 0.00 | 86 | 1017.5 |
| 20260506073103 | 12 | 244 | 4.8 | 6.4 | 0.00 | 0.00 | 0.00 | 86 | 1017.5 |
| 20260506071556 | 12 | 245 | 4.8 | 8.0 | 0.00 | 0.00 | 0.00 | 85 | 1017.4 |
| 20260506061548 | 13 | 255 | 3.2 | 8.0 | 0.00 | 0.00 | 0.00 | 85 | 1016.6 |